Waldron, WA (98297)

6:34 PM PDT on August 22, 2014 (GMT -0700)
Waldron Island | Change Station
CLOSE
Current Station
Personal Weather Station
Location: Eastsound, WA
Elevation: 89 ft
Nearby Weather Stations

Elev 89 ft 48.70 °N, 123.06 °W | Updated 5 minutes ago

Overcast
Overcast
67.9 °F
Feels Like 67.9 °F
N
2.0
Wind Variable Wind from SSW
Gusts 3.0 mph

Today
High -- | Low -- °F
--% Chance of Precip.
Yesterday
High -- | Low -- °F
Precip. -- in
6:15 AM 8:13 PM
Waning Crescent, 6% visible
Pressure 30.03 in
Visibility 10.0 miles
Clouds Clear
Dew Point 57 °F
Humidity 69%
Rainfall 0.00 in
Snow Depth Not available.
UV 1 out of 12
Pollen 2.80 out of 12
Air Quality Not available.
Flu Activity Not available.
METAR KORS 230115Z AUTO 19005KT 10SM -RA CLR 23/12 A3003 RMK AO2

More Conditions Fewer Conditions

Pressure 30.03 in
Visibility 10.0 miles
Clouds Clear
Dew Point 57 °F
Humidity 69%
Rainfall 0.00 in
Snow Depth Not available.
UV 1 out of 12
Pollen 2.80 out of 12
Air Quality Not available.
Flu Activity Not available.
METAR KORS 230115Z AUTO 19005KT 10SM -RA CLR 23/12 A3003 RMK AO2

More Conditions Fewer Conditions

10-Day Weather Forecast

Almanac

Astronomy

Aug. 22, 2014 Rise Set
Actual Time 6:15 AM PDT 8:13 PM PDT
Civil Twilight 5:41 AM PDT 8:47 PM PDT
Nautical Twilight 4:59 AM PDT 9:28 PM PDT
Astronomical Twilight 4:12 AM PDT 10:15 PM PDT
Moon 3:36 AM PDT (8/22) 6:29 PM PDT (8/22)
Length of Visible Light 15h 05m
Length of Day
13h 58m
Tomorrow will be 3m 20s shorter.
Waning Crescent, 6% of the Moon is Illuminated
Today
Waning Crescent
Aug 25
New
Sep 2
First Quarter
Sep 8
Full
Sep 15
Last Quarter

Today's Extremes

State Highs State Lows

Community

WunderPhotos

Upload Photos

1,746,337 photos uploaded!

WunderBlogs® & News

Nearby

Snow Depth

Station Depth Elevation
Beaver Pass 0 in 3620 ft
Lyman Lake 1 in 5900 ft
Rainy Pass 0 in 4780 ft
Harts Pass 0 in 6500 ft
Stevens Pass 0 in 4070 ft

Earthquake Activity

City Distance Mag. Time & Date
No recent earthquake activity has been reported nearby.
Minimum magnitude displayed is 2.5.

Coastal Water Temperatures

Place Temperature
Port Townsend, WA 53.1 °F
Friday Harbor, WA 54.0 °F
Port Angeles, WA 54.0 °F

Nearby Weather Stations